COUO2: Red River nr Courtney, OK

                                SHEF ID:       COUO2     Red River nr Courtney, OK
STATION TYPE:

PRECIP ELEVATION STAGE RIV-FLOW BAT-LOAD
in ft ft cfs volt
Ccp-Rev Ccp-Rev Ccp-Rev Ccp-Rev Ccp-Rev
(America/Chicago)
05/01 00:00 ---- ---- 12.74 2087 12.65
05/01 01:00 ---- ---- 12.77 2113 12.65
05/01 02:00 ---- ---- 12.79 2131 12.65
05/01 03:00 ---- ---- 12.79 2131 12.57
05/01 04:00 ---- ---- 12.80 2140 12.57
05/01 05:00 ---- ---- 12.80 2140 12.57
05/01 06:00 ---- ---- 12.82 2158 12.57
05/01 07:00 ---- ---- 12.82 2158 12.57
05/01 08:00 ---- ---- 12.81 2149 12.65
05/01 09:00 ---- ---- 12.80 2140 13.05
05/01 10:00 ---- ---- 12.78 2122 13.37
05/01 11:00 ---- ---- 12.76 2104 13.44
05/01 12:00 ---- ---- 12.75 2096 13.44
05/01 13:00 ---- ---- 12.69 2042 13.44
05/01 14:00 ---- ---- 12.66 2016 13.37
05/01 15:00 ---- ---- 12.70 2051 13.37
05/01 16:00 ---- ---- 12.65 2007 13.37
05/01 17:00 ---- ---- 12.62 1981 13.37
05/01 18:00 ---- ---- 12.59 1955 13.29
05/01 19:00 ---- ---- 12.57 1938 13.13
05/01 20:00 ---- ---- 12.57 1938 13.05
05/01 21:00 ---- ---- 12.54 1913 12.81
05/01 22:00 ---- ---- 12.52 1895 12.81
05/01 23:00 ---- ---- 12.50 1878 12.73
Data processed at Sat 02May2026 04:41 GMT

NOTICE: If you are parsing this page

Please convert to using our Data API. Starting early 2026 we will be migrating to: https://water.usace.army.mil with modern pages rendered in JavaScript. When this migration completes you will no longer be able to scrape this page! CWMSDataAPI (CDA)

Timeseries IDs (TSIDs)

TSIDs used from left to right in the data table
COUT.Precip-Inc.Total.1Hour.1Hour.Ccp-Rev
COUT.Stage.Inst.1Hour.0.Ccp-Rev
COUT.Flow.Inst.1Hour.0.Ccp-Rev
COUT.Volt-Battery Load.Inst.1Hour.0.Ccp-Rev

                            

All information presented herein is the property of the government of the United States of America and may be revised or deleted at any time without prior notice. Dissemination of this information without the expressed written consent of the Public Affairs Office, Tulsa District U.S. Army Corps of Engineers is strictly prohibited. These data are gathered electronically and, as presented, have NOT undergone any form of quality control. These data are NOT guaranteed to be valid or correct.